Time;durP1;ratioP1;P1;durP2;ratioP2;P2;SDS_P1;SDS_P2;PMS_P1;PMS_P2;Temp;Humidity;BMP_temperature;BMP_pressure;BME280_temperature;BME280_humidity;BME280_pressure;Samples;Min_cycle;Max_cycle;Signal;HPM_P1;HPM_P2
2023/05/02 00:02:16;;;;;;;9.73;5.57;;;14.50;57.90;;;;;;5032859;28;20574;-67
2023/05/02 00:04:43;;;;;;;10.50;5.10;;;14.60;58.10;;;;;;5016236;28;20245;-67
2023/05/02 00:07:11;;;;;;;11.33;5.40;;;14.50;58.00;;;;;;5030015;28;20202;-67
2023/05/02 00:09:39;;;;;;;10.87;5.50;;;14.50;58.10;;;;;;5034029;28;20210;-67
2023/05/02 00:12:06;;;;;;;9.10;5.40;;;14.50;58.30;;;;;;5028364;28;20212;-67
2023/05/02 00:14:33;;;;;;;9.37;4.40;;;14.50;58.20;;;;;;5032998;28;20205;-67
2023/05/02 00:17:00;;;;;;;7.57;4.90;;;14.50;58.20;;;;;;5032662;28;20242;-67
2023/05/02 00:19:30;;;;;;;10.07;5.53;;;14.50;58.30;;;;;;5033954;28;20250;-67
2023/05/02 00:21:58;;;;;;;7.30;4.83;;;14.40;58.30;;;;;;5033240;28;20245;-67
2023/05/02 00:24:25;;;;;;;6.23;4.27;;;14.40;58.40;;;;;;5025252;28;20737;-67
2023/05/02 00:26:54;;;;;;;8.30;5.13;;;14.40;58.40;;;;;;5010329;28;20201;-67
2023/05/02 00:29:21;;;;;;;11.97;4.87;;;14.40;58.50;;;;;;5032144;28;20213;-67
2023/05/02 00:31:48;;;;;;;9.00;5.03;;;14.40;58.60;;;;;;5030716;28;20274;-67
2023/05/02 00:34:15;;;;;;;9.43;5.27;;;14.30;58.60;;;;;;5014395;28;20575;-67
2023/05/02 00:36:43;;;;;;;6.50;4.70;;;14.30;58.70;;;;;;5015419;28;20694;-67
2023/05/02 00:39:10;;;;;;;12.40;5.30;;;14.30;58.70;;;;;;5016583;28;20751;-67
2023/05/02 00:41:37;;;;;;;7.27;4.63;;;14.30;58.80;;;;;;5015277;28;20244;-67
2023/05/02 00:44:06;;;;;;;7.20;4.23;;;14.20;58.70;;;;;;5013730;28;20214;-67
2023/05/02 00:46:33;;;;;;;8.33;4.83;;;14.20;58.70;;;;;;5006533;28;20420;-67
2023/05/02 00:49:01;;;;;;;7.93;4.37;;;14.20;58.90;;;;;;5015573;28;20572;-67
2023/05/02 00:51:28;;;;;;;5.33;3.80;;;14.10;58.90;;;;;;5032197;28;20738;-67
2023/05/02 00:53:56;;;;;;;7.33;3.87;;;14.10;59.00;;;;;;5022902;28;20201;-67
2023/05/02 00:56:23;;;;;;;9.00;4.97;;;14.10;59.00;;;;;;5032833;28;20205;-67
2023/05/02 00:58:50;;;;;;;6.30;4.03;;;14.10;59.00;;;;;;5033068;28;20683;-67
2023/05/02 01:01:29;;;;;;;8.73;4.63;;;14.10;59.00;;;;;;5021077;28;20216;-68
2023/05/02 01:04:08;;;;;;;6.80;4.43;;;14.10;59.10;;;;;;5008170;28;20237;-67
2023/05/02 01:06:55;;;;;;;8.03;4.47;;;14.10;59.10;;;;;;5012735;28;20200;-67
2023/05/02 01:09:38;;;;;;;5.57;3.80;;;14.10;59.30;;;;;;5003463;28;20203;-67
2023/05/02 01:12:14;;;;;;;4.57;3.70;;;14.00;59.30;;;;;;5004726;28;20189;-67
2023/05/02 01:14:43;;;;;;;5.23;3.67;;;14.00;59.40;;;;;;5011658;28;20249;-67
2023/05/02 01:17:14;;;;;;;5.97;3.80;;;13.90;59.40;;;;;;4999632;28;20301;-67
2023/05/02 01:19:44;;;;;;;6.03;3.80;;;13.90;59.50;;;;;;5019335;28;20209;-67
2023/05/02 01:22:13;;;;;;;6.10;4.00;;;13.90;59.60;;;;;;5008520;28;20204;-67
2023/05/02 01:24:49;;;;;;;6.10;3.83;;;13.90;59.70;;;;;;5011101;28;20623;-67
2023/05/02 01:27:23;;;;;;;5.90;3.90;;;13.80;59.80;;;;;;5011655;28;20203;-67
2023/05/02 01:29:52;;;;;;;9.30;5.47;;;13.80;59.90;;;;;;5009223;28;20213;-70
2023/05/02 01:32:22;;;;;;;8.83;4.70;;;13.80;60.20;;;;;;5009281;28;20192;-67
2023/05/02 01:34:51;;;;;;;6.07;4.30;;;13.80;60.20;;;;;;5010181;28;20684;-68
2023/05/02 01:37:19;;;;;;;8.33;4.40;;;13.80;60.10;;;;;;5012214;28;20209;-67
2023/05/02 01:39:48;;;;;;;9.73;5.67;;;13.80;60.30;;;;;;5013342;28;20209;-68
2023/05/02 01:42:17;;;;;;;10.60;5.03;;;13.80;60.40;;;;;;5012327;28;20210;-68
2023/05/02 01:44:46;;;;;;;9.10;5.10;;;13.80;60.40;;;;;;5010216;28;20664;-68
2023/05/02 01:47:15;;;;;;;8.20;4.57;;;13.80;60.30;;;;;;5009475;28;21559;-68
2023/05/02 01:49:44;;;;;;;7.33;4.97;;;13.80;60.30;;;;;;5010703;28;20198;-67
2023/05/02 01:52:13;;;;;;;9.57;4.40;;;13.70;60.20;;;;;;5012592;28;20255;-67
2023/05/02 01:54:41;;;;;;;7.27;4.37;;;13.70;60.30;;;;;;5012377;28;20203;-67
2023/05/02 01:57:11;;;;;;;6.37;4.43;;;13.70;60.40;;;;;;5012190;28;20254;-66
2023/05/02 01:59:42;;;;;;;7.53;4.33;;;13.60;60.40;;;;;;5010076;28;20211;-66
2023/05/02 02:02:11;;;;;;;6.60;4.60;;;13.60;60.40;;;;;;5011039;28;20237;-67
2023/05/02 02:04:41;;;;;;;16.80;5.80;;;13.60;60.50;;;;;;5027121;28;20615;-67
2023/05/02 02:07:13;;;;;;;8.10;4.20;;;13.60;60.60;;;;;;5013111;28;20260;-67
2023/05/02 02:09:40;;;;;;;8.37;5.03;;;13.60;60.70;;;;;;5014521;28;20251;-67
2023/05/02 02:12:12;;;;;;;7.67;4.93;;;13.60;60.80;;;;;;5030981;28;20354;-67
2023/05/02 02:14:42;;;;;;;5.90;4.00;;;13.60;60.80;;;;;;5022062;28;20249;-66
2023/05/02 02:17:15;;;;;;;6.47;4.10;;;13.60;60.80;;;;;;5013389;28;20207;-67
2023/05/02 02:19:45;;;;;;;7.27;3.80;;;13.60;60.80;;;;;;5027936;28;20272;-67
2023/05/02 02:22:15;;;;;;;5.67;3.80;;;13.60;60.80;;;;;;5023436;28;20213;-67
2023/05/02 02:24:46;;;;;;;4.40;3.13;;;13.60;60.90;;;;;;5031318;28;20645;-68
2023/05/02 02:27:14;;;;;;;6.70;4.50;;;13.60;61.00;;;;;;5014199;28;20237;-68
2023/05/02 02:29:41;;;;;;;6.93;4.60;;;13.60;61.40;;;;;;5010715;28;20250;-67
2023/05/02 02:32:08;;;;;;;5.07;3.87;;;13.60;61.40;;;;;;5029577;28;20205;-67
2023/05/02 02:34:35;;;;;;;6.77;3.73;;;13.60;61.40;;;;;;5019593;28;20269;-67
2023/05/02 02:37:09;;;;;;;5.07;3.83;;;13.60;61.50;;;;;;5022926;28;20209;-68
2023/05/02 02:39:45;;;;;;;6.97;3.97;;;13.60;61.50;;;;;;5028804;28;20192;-68
2023/05/02 02:42:16;;;;;;;5.60;3.70;;;13.60;61.60;;;;;;5030050;28;20761;-68
2023/05/02 02:45:01;;;;;;;12.20;5.23;;;13.60;61.70;;;;;;5029817;28;20577;-68
2023/05/02 02:47:33;;;;;;;10.73;6.53;;;13.60;61.80;;;;;;5028680;28;20730;-68
2023/05/02 02:50:11;;;;;;;9.93;5.73;;;13.60;61.90;;;;;;5031030;28;20663;-68
2023/05/02 02:52:50;;;;;;;7.60;4.70;;;13.60;61.90;;;;;;5012541;28;20217;-66
2023/05/02 02:55:24;;;;;;;8.10;4.40;;;13.40;61.70;;;;;;5030704;28;20287;-66
2023/05/02 02:57:59;;;;;;;7.77;4.23;;;13.40;62.00;;;;;;5031273;28;20191;-67
2023/05/02 03:00:28;;;;;;;9.00;5.63;;;13.40;62.00;;;;;;5029338;28;20194;-66
2023/05/02 03:02:55;;;;;;;9.57;5.30;;;13.40;62.20;;;;;;5012402;28;20241;-66
2023/05/02 03:05:23;;;;;;;10.83;5.10;;;13.40;62.20;;;;;;5030530;28;20686;-66
2023/05/02 03:07:52;;;;;;;6.27;4.13;;;13.30;62.20;;;;;;5013256;28;20219;-68
2023/05/02 03:10:23;;;;;;;6.40;4.03;;;13.30;62.20;;;;;;5008321;28;20193;-68
2023/05/02 03:12:54;;;;;;;6.17;3.70;;;13.20;62.20;;;;;;5006497;28;20295;-66
2023/05/02 03:16:12;;;;;;;8.20;4.37;;;13.20;62.40;;;;;;5005134;28;20683;-66
2023/05/02 03:18:40;;;;;;;7.00;4.70;;;13.20;62.50;;;;;;5028534;28;20298;-67
2023/05/02 03:21:07;;;;;;;10.37;4.87;;;13.20;62.70;;;;;;5011505;28;20770;-68
2023/05/02 03:23:37;;;;;;;8.63;4.77;;;13.20;62.70;;;;;;5008281;28;20674;-66
2023/05/02 03:26:05;;;;;;;7.63;4.40;;;13.20;62.80;;;;;;5012078;28;20563;-67
2023/05/02 03:28:33;;;;;;;6.40;3.93;;;13.20;62.80;;;;;;5012898;28;20297;-67
2023/05/02 03:31:00;;;;;;;6.93;4.00;;;13.30;62.80;;;;;;5001286;28;20221;-66
2023/05/02 03:33:29;;;;;;;5.90;3.97;;;13.30;62.80;;;;;;5005232;28;20219;-66
2023/05/02 03:35:56;;;;;;;6.67;3.70;;;13.20;62.70;;;;;;5029262;28;20269;-67
2023/05/02 03:38:23;;;;;;;6.07;3.63;;;13.20;62.90;;;;;;5004158;28;20222;-66
2023/05/02 03:40:53;;;;;;;10.27;4.77;;;13.20;63.00;;;;;;5005848;28;20196;-66
2023/05/02 03:43:20;;;;;;;4.20;3.27;;;13.20;63.20;;;;;;5030653;28;20533;-66
2023/05/02 03:45:47;;;;;;;11.37;4.30;;;13.20;63.20;;;;;;5010363;28;20235;-67
2023/05/02 03:48:14;;;;;;;4.27;3.47;;;13.20;63.20;;;;;;5003786;28;20210;-67
2023/05/02 03:50:42;;;;;;;9.40;4.80;;;13.20;63.30;;;;;;5027560;28;20276;-67
2023/05/02 03:53:09;;;;;;;6.63;4.03;;;13.20;63.60;;;;;;5012769;28;20207;-67
2023/05/02 03:55:46;;;;;;;8.77;5.10;;;13.20;63.60;;;;;;5011507;28;20250;-67
2023/05/02 03:58:22;;;;;;;7.33;4.37;;;13.20;63.70;;;;;;5007735;28;20235;-67
2023/05/02 04:00:51;;;;;;;6.47;4.00;;;13.20;63.70;;;;;;5010295;28;20289;-67
2023/05/02 04:03:19;;;;;;;6.33;3.80;;;13.20;63.70;;;;;;5011682;28;20245;-67
2023/05/02 04:05:46;;;;;;;6.03;3.77;;;13.20;63.80;;;;;;5014436;28;20203;-67
2023/05/02 04:08:16;;;;;;;6.53;4.00;;;13.20;63.90;;;;;;5012394;28;20204;-68
2023/05/02 04:10:44;;;;;;;6.23;3.60;;;13.20;63.80;;;;;;5002875;28;20205;-67
2023/05/02 04:13:12;;;;;;;8.93;4.90;;;13.20;63.80;;;;;;5005104;28;20201;-67
2023/05/02 04:15:45;;;;;;;8.20;4.50;;;13.20;63.90;;;;;;5009324;28;20199;-67
2023/05/02 04:18:14;;;;;;;7.40;4.70;;;13.20;63.90;;;;;;5011910;28;20199;-67
2023/05/02 04:20:44;;;;;;;8.13;4.13;;;13.20;63.90;;;;;;5022799;28;20615;-67
2023/05/02 04:23:12;;;;;;;5.80;3.87;;;13.20;64.00;;;;;;4997394;28;20215;-67
2023/05/02 04:25:39;;;;;;;4.87;3.10;;;13.20;64.00;;;;;;5010743;28;20554;-67
2023/05/02 04:28:06;;;;;;;5.73;3.57;;;13.20;64.10;;;;;;5009990;28;20211;-67
2023/05/02 04:30:34;;;;;;;10.27;5.10;;;13.20;64.20;;;;;;5002243;28;20219;-67
2023/05/02 04:33:08;;;;;;;9.03;4.90;;;13.20;64.40;;;;;;4995067;28;20194;-67
2023/05/02 04:35:39;;;;;;;6.33;4.30;;;13.20;64.50;;;;;;5006372;28;20303;-67
2023/05/02 04:38:08;;;;;;;5.57;3.83;;;13.20;64.50;;;;;;5012322;28;20686;-66
2023/05/02 04:40:36;;;;;;;9.70;3.50;;;13.20;64.50;;;;;;4998986;28;20539;-67
2023/05/02 04:43:06;;;;;;;3.70;3.37;;;13.20;64.40;;;;;;5006187;28;20223;-66
2023/05/02 04:45:41;;;;;;;6.70;3.73;;;13.20;64.60;;;;;;5009842;28;20212;-66
2023/05/02 04:48:15;;;;;;;5.47;3.90;;;13.20;64.70;;;;;;5010435;28;20215;-66
2023/05/02 04:50:44;;;;;;;6.23;3.30;;;13.30;64.90;;;;;;4998379;28;20864;-66
2023/05/02 04:53:11;;;;;;;6.83;3.50;;;13.40;64.90;;;;;;5033099;28;20200;-66
2023/05/02 04:55:39;;;;;;;7.13;3.70;;;13.40;64.90;;;;;;5015511;28;20265;-67
2023/05/02 04:58:06;;;;;;;7.63;4.10;;;13.50;65.10;;;;;;5006177;28;21333;-67
2023/05/02 05:00:34;;;;;;;11.60;5.97;;;13.50;65.10;;;;;;5005878;28;20680;-67
2023/05/02 05:03:03;;;;;;;11.07;5.77;;;13.50;65.30;;;;;;5014559;28;20247;-67
2023/05/02 05:05:31;;;;;;;9.90;5.20;;;13.50;65.30;;;;;;5024632;28;20352;-67
2023/05/02 05:07:59;;;;;;;8.27;5.50;;;13.50;65.40;;;;;;4999327;28;20735;-67
2023/05/02 05:10:30;;;;;;;9.17;4.50;;;13.40;65.50;;;;;;5012751;28;20190;-67
2023/05/02 05:12:57;;;;;;;8.73;4.83;;;13.40;65.60;;;;;;5014965;28;20227;-67
2023/05/02 05:15:26;;;;;;;7.40;3.57;;;13.40;65.70;;;;;;4999113;28;20212;-66
2023/05/02 05:17:57;;;;;;;6.13;4.20;;;13.40;65.90;;;;;;5010369;28;20194;-67
2023/05/02 05:20:24;;;;;;;4.43;3.57;;;13.50;66.20;;;;;;5015134;28;20207;-67
2023/05/02 05:22:57;;;;;;;6.20;4.27;;;13.50;66.20;;;;;;5008007;28;20246;-66
2023/05/02 05:25:26;;;;;;;6.83;3.53;;;13.60;66.40;;;;;;5024085;28;20228;-67
2023/05/02 05:27:54;;;;;;;5.57;3.90;;;13.70;66.50;;;;;;5021545;28;20215;-67
2023/05/02 05:30:22;;;;;;;6.30;4.13;;;13.70;66.50;;;;;;5012347;28;20215;-67
2023/05/02 05:32:49;;;;;;;6.60;3.67;;;13.80;66.60;;;;;;5000179;28;20662;-68
2023/05/02 05:35:17;;;;;;;6.50;3.40;;;13.80;66.60;;;;;;5006670;28;20235;-67
2023/05/02 05:37:44;;;;;;;6.77;4.10;;;13.90;66.60;;;;;;5031914;28;20203;-67
2023/05/02 05:40:15;;;;;;;7.07;3.67;;;14.00;66.70;;;;;;5014510;28;20617;-67
2023/05/02 05:42:45;;;;;;;7.03;4.30;;;14.00;66.80;;;;;;5007526;28;20217;-67
2023/05/02 05:45:19;;;;;;;6.23;4.00;;;14.10;66.90;;;;;;5009222;28;20622;-67
2023/05/02 05:47:46;;;;;;;6.77;4.10;;;14.20;67.10;;;;;;5013253;28;20200;-67
2023/05/02 05:50:13;;;;;;;5.73;3.70;;;14.30;67.30;;;;;;5006291;28;20232;-66
2023/05/02 05:52:41;;;;;;;6.07;3.87;;;14.30;67.20;;;;;;5013860;28;20311;-66
2023/05/02 05:55:09;;;;;;;6.40;3.23;;;14.40;67.20;;;;;;5014087;28;20241;-66
2023/05/02 05:57:38;;;;;;;4.33;2.90;;;14.50;67.30;;;;;;5013792;28;20229;-66
2023/05/02 06:00:07;;;;;;;2.50;2.30;;;14.50;68.10;;;;;;5012606;28;20224;-66
2023/05/02 06:02:42;;;;;;;4.87;2.80;;;14.60;67.20;;;;;;5030575;28;20240;-67
2023/05/02 06:05:15;;;;;;;2.50;2.30;;;14.70;66.90;;;;;;5014146;28;20234;-67
2023/05/02 06:07:43;;;;;;;9.77;3.00;;;14.80;66.50;;;;;;5030155;28;20205;-68
2023/05/02 06:10:11;;;;;;;3.47;2.33;;;14.90;65.70;;;;;;5029568;28;20681;-67
2023/05/02 06:12:42;;;;;;;2.00;1.80;;;15.00;65.10;;;;;;5014416;28;20202;-67
2023/05/02 06:15:11;;;;;;;3.07;1.90;;;15.10;64.60;;;;;;5008489;28;20196;-66
2023/05/02 06:17:39;;;;;;;2.30;1.97;;;15.20;64.20;;;;;;5013298;28;20216;-67
2023/05/02 06:20:08;;;;;;;2.10;1.90;;;15.20;63.70;;;;;;5026794;28;20680;-66
2023/05/02 06:22:35;;;;;;;2.00;1.50;;;15.30;63.40;;;;;;5012288;28;20573;-66
2023/05/02 06:25:04;;;;;;;1.90;1.67;;;15.40;63.20;;;;;;5025514;28;20535;-67
2023/05/02 06:27:31;;;;;;;1.90;1.80;;;15.40;62.80;;;;;;5012465;28;20296;-67
2023/05/02 06:29:59;;;;;;;3.70;1.43;;;15.50;62.50;;;;;;5017432;28;20205;-67
2023/05/02 06:32:30;;;;;;;2.13;1.93;;;15.50;62.30;;;;;;5028800;28;20285;-66
2023/05/02 06:34:57;;;;;;;3.80;1.90;;;15.60;62.00;;;;;;5029718;28;20199;-66
2023/05/02 06:37:24;;;;;;;2.73;1.70;;;15.60;61.80;;;;;;5004644;28;20754;-66
2023/05/02 06:39:51;;;;;;;1.53;1.40;;;15.70;61.50;;;;;;5030141;28;20208;-66
2023/05/02 06:42:18;;;;;;;2.60;1.80;;;15.70;61.40;;;;;;5031028;28;20201;-65
2023/05/02 06:44:45;;;;;;;2.60;1.67;;;15.70;61.10;;;;;;5006343;28;20696;-66
2023/05/02 06:47:14;;;;;;;1.63;1.50;;;15.80;61.10;;;;;;5008934;28;20387;-67
2023/05/02 06:49:41;;;;;;;1.67;1.50;;;15.80;60.90;;;;;;5023092;28;20206;-67
2023/05/02 06:52:08;;;;;;;1.10;1.10;;;15.90;60.90;;;;;;5022500;28;20194;-67
2023/05/02 06:54:35;;;;;;;1.93;1.43;;;15.90;60.80;;;;;;5023162;28;20207;-67
2023/05/02 06:57:04;;;;;;;2.73;1.77;;;16.00;60.70;;;;;;5028369;28;20587;-67
2023/05/02 06:59:31;;;;;;;4.37;2.00;;;16.00;60.30;;;;;;5009985;28;20312;-67
2023/05/02 07:01:58;;;;;;;1.87;1.73;;;16.00;60.30;;;;;;5018879;28;20252;-67
2023/05/02 07:04:27;;;;;;;1.47;1.37;;;16.00;60.30;;;;;;5023196;28;20230;-67
2023/05/02 07:06:54;;;;;;;2.43;1.60;;;16.00;60.20;;;;;;5020772;28;20209;-67
2023/05/02 07:09:21;;;;;;;1.90;1.60;;;16.00;60.20;;;;;;5027825;28;20302;-68
2023/05/02 07:11:48;;;;;;;3.17;2.00;;;16.10;60.30;;;;;;5023636;28;20198;-67
2023/05/02 07:14:15;;;;;;;1.80;1.70;;;16.10;60.90;;;;;;5028010;28;20194;-67
2023/05/02 07:16:43;;;;;;;2.00;1.80;;;16.10;60.00;;;;;;5024994;28;20748;-67
2023/05/02 07:19:10;;;;;;;1.80;1.33;;;16.10;60.00;;;;;;5028886;28;20566;-67
2023/05/02 07:21:39;;;;;;;1.80;1.70;;;16.10;60.10;;;;;;5019517;28;20723;-67
2023/05/02 07:24:06;;;;;;;4.13;2.17;;;16.20;60.10;;;;;;5029432;28;20202;-68
2023/05/02 07:26:33;;;;;;;1.90;1.70;;;16.10;59.90;;;;;;5024764;28;20728;-66
2023/05/02 07:29:00;;;;;;;4.20;1.63;;;16.20;60.00;;;;;;5028524;28;20206;-67
2023/05/02 07:31:27;;;;;;;1.50;1.40;;;16.20;59.90;;;;;;5011649;28;20203;-67
2023/05/02 07:33:54;;;;;;;2.03;1.47;;;16.20;59.90;;;;;;5024462;28;20242;-66
2023/05/02 07:36:21;;;;;;;5.67;1.40;;;16.30;59.90;;;;;;5009758;28;20305;-67
2023/05/02 07:38:49;;;;;;;1.70;1.60;;;16.30;59.80;;;;;;5028641;28;20281;-67
2023/05/02 07:41:17;;;;;;;2.50;1.20;;;16.40;59.90;;;;;;5009766;28;20194;-67
2023/05/02 07:43:44;;;;;;;1.63;1.43;;;16.40;59.80;;;;;;5028693;28;20303;-67
2023/05/02 07:46:11;;;;;;;3.40;2.10;;;16.50;59.80;;;;;;5007240;28;20202;-67
2023/05/02 07:48:38;;;;;;;2.20;1.70;;;16.60;59.70;;;;;;5025942;28;20670;-67
2023/05/02 07:51:09;;;;;;;1.97;1.70;;;16.60;59.70;;;;;;5003691;28;20602;-67
2023/05/02 07:53:37;;;;;;;2.77;1.93;;;16.60;59.50;;;;;;5028649;28;20554;-67
2023/05/02 07:56:08;;;;;;;2.40;1.80;;;16.70;59.50;;;;;;5025915;28;20657;-67
2023/05/02 07:58:36;;;;;;;1.73;1.63;;;16.70;59.50;;;;;;5012690;28;20198;-67
2023/05/02 08:01:03;;;;;;;2.53;1.80;;;16.70;59.50;;;;;;5026881;28;20278;-67
2023/05/02 08:03:31;;;;;;;2.80;1.57;;;16.80;59.50;;;;;;5027657;28;20246;-67
2023/05/02 08:05:58;;;;;;;1.50;1.40;;;16.90;59.60;;;;;;5027685;28;20257;-67
2023/05/02 08:08:25;;;;;;;2.70;1.80;;;16.90;59.40;;;;;;5026695;28;20253;-66
2023/05/02 08:10:52;;;;;;;1.90;1.63;;;17.00;59.40;;;;;;5009022;28;20531;-67
2023/05/02 08:13:20;;;;;;;1.50;1.40;;;17.10;59.40;;;;;;5027223;28;20222;-67
2023/05/02 08:15:50;;;;;;;3.07;1.50;;;17.10;59.40;;;;;;5009523;28;20246;-67
2023/05/02 08:18:17;;;;;;;1.53;1.43;;;17.10;59.30;;;;;;5022454;28;20216;-67
2023/05/02 08:20:45;;;;;;;2.17;1.77;;;17.30;59.40;;;;;;5027270;28;20559;-68
2023/05/02 08:23:12;;;;;;;2.40;1.90;;;17.40;59.30;;;;;;5028226;28;20211;-68
2023/05/02 08:25:39;;;;;;;1.73;1.60;;;17.50;59.20;;;;;;5030366;28;20206;-68
2023/05/02 08:28:06;;;;;;;3.37;1.80;;;17.60;59.20;;;;;;5014021;28;20210;-68
2023/05/02 08:30:34;;;;;;;1.63;1.50;;;17.70;59.10;;;;;;5026706;28;20290;-67
2023/05/02 08:33:01;;;;;;;1.40;1.30;;;17.90;59.00;;;;;;5028018;28;20198;-67
2023/05/02 08:35:29;;;;;;;2.40;1.63;;;18.10;58.90;;;;;;5031431;28;20249;-68
2023/05/02 08:37:57;;;;;;;2.37;1.80;;;18.20;58.70;;;;;;5020652;28;20195;-67
2023/05/02 08:40:24;;;;;;;1.57;1.47;;;18.30;58.50;;;;;;5031521;28;20207;-68
2023/05/02 08:42:52;;;;;;;2.07;1.70;;;18.50;58.50;;;;;;5013121;28;20366;-68
2023/05/02 08:45:20;;;;;;;2.50;1.80;;;18.60;58.40;;;;;;5014581;28;20519;-68
2023/05/02 08:47:52;;;;;;;2.83;1.87;;;18.70;58.20;;;;;;5025805;28;20199;-68
2023/05/02 08:50:21;;;;;;;2.23;2.00;;;18.80;57.70;;;;;;5029257;28;20192;-67
2023/05/02 08:52:51;;;;;;;1.67;1.57;;;18.90;57.40;;;;;;5020075;28;20975;-67
2023/05/02 08:55:26;;;;;;;3.30;1.88;;;19.00;57.30;;;;;;5026298;28;20594;-67
2023/05/02 08:57:56;;;;;;;1.38;1.30;;;19.00;56.90;;;;;;5028841;28;20203;-67
2023/05/02 09:00:24;;;;;;;1.20;1.05;;;19.10;57.30;;;;;;5020555;28;20232;-67
2023/05/02 09:03:06;;;;;;;1.10;1.00;;;19.30;56.60;;;;;;5027847;28;20321;-67
2023/05/02 09:05:40;;;;;;;1.00;1.00;;;19.40;56.30;;;;;;5013624;28;20533;-67
2023/05/02 09:08:08;;;;;;;4.28;1.20;;;19.50;55.60;;;;;;5030564;28;20206;-66
2023/05/02 09:10:36;;;;;;;2.20;1.27;;;19.70;55.10;;;;;;5028807;28;20202;-66
2023/05/02 09:13:31;;;;;;;1.40;1.10;;;19.80;54.00;;;;;;5030595;28;20281;-68
2023/05/02 09:15:59;;;;;;;1.23;1.00;;;19.80;53.70;;;;;;5009333;28;20214;-67
2023/05/02 09:18:31;;;;;;;1.23;1.05;;;19.90;53.40;;;;;;5030176;28;20273;-67
2023/05/02 09:21:00;;;;;;;1.23;1.20;;;20.00;53.30;;;;;;5029986;28;20198;-67
2023/05/02 09:23:42;;;;;;;1.30;1.13;;;20.10;52.90;;;;;;5024922;28;20313;-68
2023/05/02 09:26:18;;;;;;;1.85;1.00;;;20.20;52.80;;;;;;5009365;28;20234;-67
2023/05/02 09:28:47;;;;;;;0.98;0.98;;;20.30;52.70;;;;;;5020074;28;20656;-68
2023/05/02 09:31:16;;;;;;;1.23;0.90;;;20.40;52.40;;;;;;5027709;28;20191;-67
2023/05/02 09:33:45;;;;;;;1.55;1.00;;;20.50;52.10;;;;;;5029044;28;20191;-67
2023/05/02 09:36:14;;;;;;;1.35;1.00;;;20.60;52.00;;;;;;5010873;28;20207;-67
2023/05/02 09:38:42;;;;;;;0.80;0.80;;;20.70;51.60;;;;;;5031014;28;20839;-67
2023/05/02 09:41:09;;;;;;;0.80;0.80;;;20.80;51.70;;;;;;5010420;28;20206;-66
2023/05/02 09:43:36;;;;;;;1.90;0.80;;;20.90;52.50;;;;;;5000804;28;20289;-67
2023/05/02 09:46:05;;;;;;;1.13;1.00;;;21.10;51.80;;;;;;5009812;28;20202;-67
2023/05/02 09:48:35;;;;;;;1.60;1.30;;;21.30;51.50;;;;;;5031354;28;20204;-67
2023/05/02 09:51:03;;;;;;;1.20;1.10;;;21.20;51.20;;;;;;5031602;28;20199;-66
2023/05/02 09:53:30;;;;;;;0.93;0.93;;;21.00;51.10;;;;;;5032088;28;20562;-66
2023/05/02 09:56:05;;;;;;;2.65;1.77;;;20.90;51.40;;;;;;5031145;28;20226;-66
2023/05/02 09:58:32;;;;;;;1.70;1.33;;;20.80;51.20;;;;;;5025594;28;20201;-67
2023/05/02 10:00:59;;;;;;;1.27;1.15;;;20.60;51.40;;;;;;5029614;28;20195;-66
2023/05/02 10:03:28;;;;;;;0.95;0.95;;;20.40;51.60;;;;;;5029072;28;20280;-66
2023/05/02 10:05:56;;;;;;;1.40;1.10;;;20.40;52.00;;;;;;5031379;28;20198;-67
2023/05/02 10:08:27;;;;;;;1.42;1.33;;;20.40;52.40;;;;;;5030502;28;20577;-67
2023/05/02 10:10:55;;;;;;;1.92;1.60;;;20.30;52.80;;;;;;5030830;28;20201;-66
2023/05/02 10:13:26;;;;;;;1.90;1.70;;;20.30;53.50;;;;;;5013349;28;20256;-66
2023/05/02 10:16:00;;;;;;;2.97;2.28;;;20.30;54.30;;;;;;5013578;28;20670;-66
2023/05/02 10:18:31;;;;;;;2.45;2.00;;;20.30;55.30;;;;;;5030662;28;20198;-67
2023/05/02 10:21:02;;;;;;;1.55;1.45;;;20.30;55.40;;;;;;5031275;28;20547;-67
2023/05/02 10:23:31;;;;;;;2.05;1.30;;;20.20;55.50;;;;;;5030778;28;20194;-67
2023/05/02 10:25:59;;;;;;;1.52;1.42;;;20.20;55.70;;;;;;5031345;28;20653;-67
2023/05/02 10:28:29;;;;;;;2.28;2.17;;;20.20;55.90;;;;;;5012749;28;20198;-67
2023/05/02 10:30:57;;;;;;;1.67;1.58;;;20.20;56.50;;;;;;5026311;28;20546;-67
2023/05/02 10:33:25;;;;;;;1.98;1.88;;;20.10;56.80;;;;;;5011874;28;20245;-67
2023/05/02 10:35:52;;;;;;;2.22;1.90;;;20.20;57.20;;;;;;5024062;28;20187;-67
2023/05/02 10:38:21;;;;;;;3.45;2.88;;;20.30;57.50;;;;;;5028836;28;20198;-67
2023/05/02 10:40:56;;;;;;;2.45;2.25;;;20.30;58.70;;;;;;5015268;28;20206;-67
2023/05/02 10:43:25;;;;;;;4.47;3.00;;;20.30;58.60;;;;;;5013177;28;20646;-67
2023/05/02 10:45:54;;;;;;;3.25;2.78;;;20.30;59.60;;;;;;5008801;28;20314;-68
2023/05/02 10:48:23;;;;;;;2.28;2.08;;;20.30;59.00;;;;;;5029618;28;20677;-67
2023/05/02 10:50:52;;;;;;;2.42;2.22;;;20.30;59.00;;;;;;5030431;28;20203;-67
2023/05/02 10:53:33;;;;;;;2.08;1.98;;;20.30;59.00;;;;;;5030759;28;20282;-67
2023/05/02 10:56:14;;;;;;;2.40;2.20;;;20.20;59.00;;;;;;5016075;28;20749;-67
2023/05/02 10:58:42;;;;;;;2.58;2.10;;;20.10;59.10;;;;;;5022084;28;20206;-68
2023/05/02 11:01:40;;;;;;;5.05;2.60;;;20.00;59.20;;;;;;5026801;28;20275;-66
2023/05/02 11:04:09;;;;;;;2.72;2.53;;;19.90;59.40;;;;;;5027236;28;20329;-67
2023/05/02 11:06:57;;;;;;;2.03;1.92;;;19.90;59.70;;;;;;5030087;28;20297;-67
2023/05/02 11:09:35;;;;;;;2.40;1.50;;;19.80;59.80;;;;;;5029450;28;20199;-67
2023/05/02 11:12:07;;;;;;;2.90;2.10;;;19.90;59.90;;;;;;5029567;28;20190;-67
2023/05/02 11:14:58;;;;;;;1.98;1.88;;;19.90;60.30;;;;;;5010692;28;20205;-67
2023/05/02 11:17:25;;;;;;;3.17;2.88;;;20.00;60.40;;;;;;5028005;28;20642;-67
2023/05/02 11:20:25;;;;;;;3.90;3.00;;;19.90;60.40;;;;;;5028665;28;20248;-67
2023/05/02 11:22:54;;;;;;;2.50;2.30;;;19.90;60.90;;;;;;5029116;28;20194;-67
2023/05/02 11:25:32;;;;;;;4.70;2.50;;;19.80;61.00;;;;;;5011845;28;20219;-67
2023/05/02 11:28:00;;;;;;;3.85;3.08;;;19.80;61.20;;;;;;5013605;28;20210;-67
2023/05/02 11:30:38;;;;;;;2.70;2.50;;;19.70;61.60;;;;;;5028621;28;20202;-66
2023/05/02 11:33:17;;;;;;;2.35;2.20;;;19.60;62.00;;;;;;5028454;28;20629;-67
2023/05/02 11:35:45;;;;;;;3.40;1.90;;;19.50;61.90;;;;;;5020359;28;20190;-66
2023/05/02 11:38:14;;;;;;;2.20;2.00;;;19.40;62.00;;;;;;5021609;28;20325;-66
2023/05/02 11:40:49;;;;;;;3.45;3.15;;;19.30;62.40;;;;;;5017044;28;20523;-67
2023/05/02 11:43:20;;;;;;;3.00;2.70;;;19.20;62.90;;;;;;5016885;28;20194;-66
2023/05/02 11:45:47;;;;;;;2.10;2.00;;;19.10;63.20;;;;;;5022836;28;20218;-67
2023/05/02 11:48:17;;;;;;;6.88;2.72;;;18.90;63.30;;;;;;5022450;28;20288;-67
2023/05/02 11:50:46;;;;;;;3.50;3.05;;;18.90;63.90;;;;;;5022599;28;20190;-67
2023/05/02 11:53:14;;;;;;;3.83;3.00;;;18.80;64.80;;;;;;5019826;28;20210;-67
2023/05/02 11:55:49;;;;;;;2.10;1.83;;;18.60;65.40;;;;;;5027814;28;20240;-67
2023/05/02 11:58:20;;;;;;;2.63;2.43;;;18.60;65.50;;;;;;5025574;28;20601;-67
2023/05/02 12:00:53;;;;;;;4.05;2.55;;;18.40;65.90;;;;;;5031021;28;20213;-67
2023/05/02 12:03:27;;;;;;;2.13;1.70;;;18.40;66.70;;;;;;5029536;28;20222;-67
2023/05/02 12:05:54;;;;;;;1.90;1.65;;;18.30;66.80;;;;;;5031603;28;20204;-67
2023/05/02 12:08:23;;;;;;;1.37;1.37;;;18.20;67.60;;;;;;5020450;28;20202;-67
2023/05/02 12:10:52;;;;;;;1.20;1.10;;;18.10;67.80;;;;;;5022857;28;20196;-67
2023/05/02 12:13:23;;;;;;;2.03;1.23;;;18.10;68.30;;;;;;5032378;28;20205;-67
2023/05/02 12:15:52;;;;;;;1.45;1.10;;;18.00;68.60;;;;;;5029619;28;20270;-67
2023/05/02 12:18:22;;;;;;;1.10;1.00;;;17.90;68.70;;;;;;5031271;28;20643;-67
2023/05/02 12:20:50;;;;;;;0.80;0.80;;;17.90;68.90;;;;;;5031615;28;20197;-67
2023/05/02 12:23:17;;;;;;;0.82;0.82;;;17.90;68.80;;;;;;5031586;28;20254;-67
2023/05/02 12:25:44;;;;;;;0.80;0.80;;;18.00;69.00;;;;;;5023693;28;20261;-67
2023/05/02 12:28:11;;;;;;;0.70;0.70;;;18.10;69.00;;;;;;5009836;28;20230;-67
2023/05/02 12:30:40;;;;;;;0.80;0.80;;;18.20;68.90;;;;;;5012899;28;20215;-67
2023/05/02 12:33:08;;;;;;;2.10;1.17;;;18.20;68.80;;;;;;5024849;28;20530;-67
2023/05/02 12:35:35;;;;;;;0.82;0.82;;;18.10;68.80;;;;;;5021848;28;20190;-67
2023/05/02 12:38:11;;;;;;;1.30;1.20;;;18.10;68.90;;;;;;5010561;28;20673;-67
2023/05/02 12:40:40;;;;;;;1.17;1.17;;;18.10;69.00;;;;;;5027377;28;20210;-66
2023/05/02 12:43:09;;;;;;;2.03;1.37;;;18.10;69.00;;;;;;5030045;28;20200;-67
2023/05/02 12:45:37;;;;;;;1.40;1.30;;;18.10;69.20;;;;;;5028011;28;20265;-67
2023/05/02 12:48:23;;;;;;;1.27;1.10;;;18.10;69.50;;;;;;5029885;28;20198;-67
2023/05/02 12:50:50;;;;;;;1.50;1.40;;;18.00;69.50;;;;;;5030003;28;20196;-67
2023/05/02 12:53:18;;;;;;;2.30;1.60;;;18.00;69.60;;;;;;5013972;28;20205;-67
2023/05/02 12:55:45;;;;;;;2.23;1.63;;;17.90;69.20;;;;;;5030921;28;20196;-67
2023/05/02 12:58:13;;;;;;;1.83;1.73;;;17.80;68.90;;;;;;5026854;28;20250;-67
2023/05/02 13:00:41;;;;;;;1.63;1.53;;;17.70;68.50;;;;;;5024674;28;20195;-68